sensor_id;sensor_type;location;lat;lon;timestamp;P1;durP1;ratioP1;P2;durP2;ratioP2
17253;SDS011;32542;52.832;13.816;2024-02-23T00:01:32;1.30;;;0.60;;
17253;SDS011;32542;52.832;13.816;2024-02-23T00:04:34;0.98;;;0.65;;
17253;SDS011;32542;52.832;13.816;2024-02-23T00:07:38;0.80;;;0.70;;
17253;SDS011;32542;52.832;13.816;2024-02-23T00:10:42;0.60;;;0.60;;
17253;SDS011;32542;52.832;13.816;2024-02-23T00:13:45;0.60;;;0.60;;
17253;SDS011;32542;52.832;13.816;2024-02-23T00:16:48;0.60;;;0.60;;
17253;SDS011;32542;52.832;13.816;2024-02-23T00:19:51;1.67;;;0.68;;
17253;SDS011;32542;52.832;13.816;2024-02-23T00:22:54;0.70;;;0.70;;
17253;SDS011;32542;52.832;13.816;2024-02-23T00:25:59;0.50;;;0.50;;
17253;SDS011;32542;52.832;13.816;2024-02-23T00:29:02;0.90;;;0.50;;
17253;SDS011;32542;52.832;13.816;2024-02-23T00:32:05;0.70;;;0.70;;
17253;SDS011;32542;52.832;13.816;2024-02-23T00:35:08;0.63;;;0.60;;
17253;SDS011;32542;52.832;13.816;2024-02-23T00:38:11;0.82;;;0.70;;
17253;SDS011;32542;52.832;13.816;2024-02-23T00:41:16;1.63;;;0.60;;
17253;SDS011;32542;52.832;13.816;2024-02-23T00:44:18;0.73;;;0.60;;
17253;SDS011;32542;52.832;13.816;2024-02-23T00:47:21;1.33;;;0.60;;
17253;SDS011;32542;52.832;13.816;2024-02-23T00:50:24;1.67;;;0.70;;
17253;SDS011;32542;52.832;13.816;2024-02-23T00:53:30;0.85;;;0.60;;
17253;SDS011;32542;52.832;13.816;2024-02-23T00:56:34;1.40;;;0.60;;
17253;SDS011;32542;52.832;13.816;2024-02-23T00:59:51;0.52;;;0.50;;
17253;SDS011;32542;52.832;13.816;2024-02-23T01:02:54;1.23;;;0.63;;
17253;SDS011;32542;52.832;13.816;2024-02-23T01:05:59;1.63;;;0.60;;
17253;SDS011;32542;52.832;13.816;2024-02-23T01:09:02;0.88;;;0.60;;
17253;SDS011;32542;52.832;13.816;2024-02-23T01:12:07;1.40;;;0.60;;
17253;SDS011;32542;52.832;13.816;2024-02-23T01:15:10;0.95;;;0.50;;
17253;SDS011;32542;52.832;13.816;2024-02-23T01:18:13;0.85;;;0.50;;
17253;SDS011;32542;52.832;13.816;2024-02-23T01:21:16;0.70;;;0.52;;
17253;SDS011;32542;52.832;13.816;2024-02-23T01:24:19;0.73;;;0.60;;
17253;SDS011;32542;52.832;13.816;2024-02-23T01:27:24;0.63;;;0.57;;
17253;SDS011;32542;52.832;13.816;2024-02-23T01:30:27;0.60;;;0.60;;
17253;SDS011;32542;52.832;13.816;2024-02-23T01:33:29;0.52;;;0.40;;
17253;SDS011;32542;52.832;13.816;2024-02-23T01:36:32;0.50;;;0.50;;
17253;SDS011;32542;52.832;13.816;2024-02-23T01:39:35;0.68;;;0.50;;
17253;SDS011;32542;52.832;13.816;2024-02-23T01:42:40;0.85;;;0.60;;
17253;SDS011;32542;52.832;13.816;2024-02-23T01:45:44;0.50;;;0.50;;
17253;SDS011;32542;52.832;13.816;2024-02-23T01:48:47;0.50;;;0.50;;
17253;SDS011;32542;52.832;13.816;2024-02-23T01:51:50;0.50;;;0.50;;
17253;SDS011;32542;52.832;13.816;2024-02-23T01:54:53;0.50;;;0.50;;
17253;SDS011;32542;52.832;13.816;2024-02-23T01:57:58;0.40;;;0.40;;
17253;SDS011;32542;52.832;13.816;2024-02-23T02:01:06;1.30;;;0.60;;
17253;SDS011;32542;52.832;13.816;2024-02-23T02:04:09;0.52;;;0.50;;
17253;SDS011;32542;52.832;13.816;2024-02-23T02:07:12;0.60;;;0.60;;
17253;SDS011;32542;52.832;13.816;2024-02-23T02:10:15;0.57;;;0.45;;
17253;SDS011;32542;52.832;13.816;2024-02-23T02:13:20;0.60;;;0.60;;
17253;SDS011;32542;52.832;13.816;2024-02-23T02:16:23;0.65;;;0.60;;
17253;SDS011;32542;52.832;13.816;2024-02-23T02:19:26;0.55;;;0.55;;
17253;SDS011;32542;52.832;13.816;2024-02-23T02:22:29;0.60;;;0.60;;
17253;SDS011;32542;52.832;13.816;2024-02-23T02:25:32;0.57;;;0.57;;
17253;SDS011;32542;52.832;13.816;2024-02-23T02:28:36;0.50;;;0.50;;
17253;SDS011;32542;52.832;13.816;2024-02-23T02:31:39;0.63;;;0.63;;
17253;SDS011;32542;52.832;13.816;2024-02-23T02:34:42;0.52;;;0.50;;
17253;SDS011;32542;52.832;13.816;2024-02-23T02:37:45;0.50;;;0.50;;
17253;SDS011;32542;52.832;13.816;2024-02-23T02:40:48;0.50;;;0.50;;
17253;SDS011;32542;52.832;13.816;2024-02-23T02:43:52;0.43;;;0.43;;
17253;SDS011;32542;52.832;13.816;2024-02-23T02:46:55;0.60;;;0.60;;
17253;SDS011;32542;52.832;13.816;2024-02-23T02:49:58;0.50;;;0.50;;
17253;SDS011;32542;52.832;13.816;2024-02-23T02:53:01;0.73;;;0.60;;
17253;SDS011;32542;52.832;13.816;2024-02-23T02:56:05;0.50;;;0.50;;
17253;SDS011;32542;52.832;13.816;2024-02-23T02:59:09;0.60;;;0.60;;
17253;SDS011;32542;52.832;13.816;2024-02-23T03:02:12;0.50;;;0.50;;
17253;SDS011;32542;52.832;13.816;2024-02-23T03:05:15;1.38;;;0.50;;
17253;SDS011;32542;52.832;13.816;2024-02-23T03:08:18;0.73;;;0.60;;
17253;SDS011;32542;52.832;13.816;2024-02-23T03:11:21;0.50;;;0.50;;
17253;SDS011;32542;52.832;13.816;2024-02-23T03:14:26;0.50;;;0.50;;
17253;SDS011;32542;52.832;13.816;2024-02-23T03:17:29;0.40;;;0.40;;
17253;SDS011;32542;52.832;13.816;2024-02-23T03:20:32;0.60;;;0.60;;
17253;SDS011;32542;52.832;13.816;2024-02-23T03:23:35;0.55;;;0.55;;
17253;SDS011;32542;52.832;13.816;2024-02-23T03:26:39;0.60;;;0.60;;
17253;SDS011;32542;52.832;13.816;2024-02-23T03:29:43;0.60;;;0.60;;
17253;SDS011;32542;52.832;13.816;2024-02-23T03:32:46;1.92;;;0.50;;
17253;SDS011;32542;52.832;13.816;2024-02-23T03:35:49;0.50;;;0.45;;
17253;SDS011;32542;52.832;13.816;2024-02-23T03:38:52;0.73;;;0.60;;
17253;SDS011;32542;52.832;13.816;2024-02-23T03:41:55;0.77;;;0.60;;
17253;SDS011;32542;52.832;13.816;2024-02-23T03:44:59;0.65;;;0.65;;
17253;SDS011;32542;52.832;13.816;2024-02-23T03:48:02;0.60;;;0.60;;
17253;SDS011;32542;52.832;13.816;2024-02-23T03:51:06;0.60;;;0.45;;
17253;SDS011;32542;52.832;13.816;2024-02-23T03:54:11;0.50;;;0.50;;
17253;SDS011;32542;52.832;13.816;2024-02-23T03:57:14;0.60;;;0.60;;
17253;SDS011;32542;52.832;13.816;2024-02-23T04:00:18;0.57;;;0.57;;
17253;SDS011;32542;52.832;13.816;2024-02-23T04:03:22;0.50;;;0.50;;
17253;SDS011;32542;52.832;13.816;2024-02-23T04:06:25;1.85;;;0.60;;
17253;SDS011;32542;52.832;13.816;2024-02-23T04:09:27;0.55;;;0.50;;
17253;SDS011;32542;52.832;13.816;2024-02-23T04:12:31;0.60;;;0.60;;
17253;SDS011;32542;52.832;13.816;2024-02-23T04:15:35;2.47;;;0.50;;
17253;SDS011;32542;52.832;13.816;2024-02-23T04:18:38;0.50;;;0.50;;
17253;SDS011;32542;52.832;13.816;2024-02-23T04:21:41;0.50;;;0.50;;
17253;SDS011;32542;52.832;13.816;2024-02-23T04:24:44;0.55;;;0.55;;
17253;SDS011;32542;52.832;13.816;2024-02-23T04:27:47;0.77;;;0.55;;
17253;SDS011;32542;52.832;13.816;2024-02-23T04:30:51;1.00;;;0.52;;
17253;SDS011;32542;52.832;13.816;2024-02-23T04:33:54;0.75;;;0.68;;
17253;SDS011;32542;52.832;13.816;2024-02-23T04:36:57;0.45;;;0.45;;
17253;SDS011;32542;52.832;13.816;2024-02-23T04:40:00;0.68;;;0.60;;
17253;SDS011;32542;52.832;13.816;2024-02-23T04:43:03;0.55;;;0.50;;
17253;SDS011;32542;52.832;13.816;2024-02-23T04:46:08;0.40;;;0.40;;
17253;SDS011;32542;52.832;13.816;2024-02-23T04:49:11;0.70;;;0.70;;
17253;SDS011;32542;52.832;13.816;2024-02-23T04:52:14;0.47;;;0.40;;
17253;SDS011;32542;52.832;13.816;2024-02-23T04:55:17;1.15;;;0.50;;
17253;SDS011;32542;52.832;13.816;2024-02-23T04:58:20;0.68;;;0.47;;
17253;SDS011;32542;52.832;13.816;2024-02-23T05:01:24;0.50;;;0.50;;
17253;SDS011;32542;52.832;13.816;2024-02-23T05:04:27;0.50;;;0.50;;
17253;SDS011;32542;52.832;13.816;2024-02-23T05:07:30;0.50;;;0.45;;
17253;SDS011;32542;52.832;13.816;2024-02-23T05:10:33;0.57;;;0.40;;
17253;SDS011;32542;52.832;13.816;2024-02-23T05:13:36;0.75;;;0.60;;
17253;SDS011;32542;52.832;13.816;2024-02-23T05:16:44;0.60;;;0.60;;
17253;SDS011;32542;52.832;13.816;2024-02-23T05:19:47;0.93;;;0.52;;
17253;SDS011;32542;52.832;13.816;2024-02-23T05:22:50;0.50;;;0.50;;
17253;SDS011;32542;52.832;13.816;2024-02-23T05:25:53;0.57;;;0.50;;
17253;SDS011;32542;52.832;13.816;2024-02-23T05:28:56;0.40;;;0.40;;
17253;SDS011;32542;52.832;13.816;2024-02-23T05:32:00;0.57;;;0.47;;
17253;SDS011;32542;52.832;13.816;2024-02-23T05:35:04;0.50;;;0.50;;
17253;SDS011;32542;52.832;13.816;2024-02-23T05:38:07;0.43;;;0.43;;
17253;SDS011;32542;52.832;13.816;2024-02-23T05:41:11;0.50;;;0.50;;
17253;SDS011;32542;52.832;13.816;2024-02-23T05:44:14;0.82;;;0.50;;
17253;SDS011;32542;52.832;13.816;2024-02-23T05:47:19;0.55;;;0.52;;
17253;SDS011;32542;52.832;13.816;2024-02-23T05:50:22;0.47;;;0.47;;
17253;SDS011;32542;52.832;13.816;2024-02-23T05:53:25;0.40;;;0.40;;
17253;SDS011;32542;52.832;13.816;2024-02-23T05:56:32;0.93;;;0.60;;
17253;SDS011;32542;52.832;13.816;2024-02-23T05:59:35;0.50;;;0.50;;
17253;SDS011;32542;52.832;13.816;2024-02-23T06:02:40;0.98;;;0.70;;
17253;SDS011;32542;52.832;13.816;2024-02-23T06:05:43;0.50;;;0.50;;
17253;SDS011;32542;52.832;13.816;2024-02-23T06:08:46;0.75;;;0.55;;
17253;SDS011;32542;52.832;13.816;2024-02-23T06:11:50;0.50;;;0.50;;
17253;SDS011;32542;52.832;13.816;2024-02-23T06:14:54;0.57;;;0.57;;
17253;SDS011;32542;52.832;13.816;2024-02-23T06:17:59;1.17;;;0.40;;
17253;SDS011;32542;52.832;13.816;2024-02-23T06:21:02;2.05;;;0.60;;
17253;SDS011;32542;52.832;13.816;2024-02-23T06:24:06;0.65;;;0.50;;
17253;SDS011;32542;52.832;13.816;2024-02-23T06:27:10;0.50;;;0.50;;
17253;SDS011;32542;52.832;13.816;2024-02-23T06:30:13;0.50;;;0.50;;
17253;SDS011;32542;52.832;13.816;2024-02-23T06:33:17;0.40;;;0.40;;
17253;SDS011;32542;52.832;13.816;2024-02-23T06:36:20;1.00;;;0.50;;
17253;SDS011;32542;52.832;13.816;2024-02-23T06:39:23;0.50;;;0.50;;
17253;SDS011;32542;52.832;13.816;2024-02-23T06:42:26;0.60;;;0.50;;
17253;SDS011;32542;52.832;13.816;2024-02-23T06:45:29;0.70;;;0.70;;
17253;SDS011;32542;52.832;13.816;2024-02-23T06:48:33;0.57;;;0.50;;
17253;SDS011;32542;52.832;13.816;2024-02-23T06:51:36;0.40;;;0.40;;
17253;SDS011;32542;52.832;13.816;2024-02-23T06:54:42;0.45;;;0.45;;
17253;SDS011;32542;52.832;13.816;2024-02-23T06:57:44;1.25;;;0.45;;
17253;SDS011;32542;52.832;13.816;2024-02-23T07:00:48;0.43;;;0.43;;
17253;SDS011;32542;52.832;13.816;2024-02-23T07:03:52;0.50;;;0.50;;
17253;SDS011;32542;52.832;13.816;2024-02-23T07:06:55;0.50;;;0.50;;
17253;SDS011;32542;52.832;13.816;2024-02-23T07:09:58;0.50;;;0.50;;
17253;SDS011;32542;52.832;13.816;2024-02-23T07:13:01;0.45;;;0.45;;
17253;SDS011;32542;52.832;13.816;2024-02-23T07:16:07;2.15;;;0.50;;
17253;SDS011;32542;52.832;13.816;2024-02-23T07:19:11;0.40;;;0.40;;
17253;SDS011;32542;52.832;13.816;2024-02-23T07:22:14;0.32;;;0.32;;
17253;SDS011;32542;52.832;13.816;2024-02-23T07:25:19;0.40;;;0.40;;
17253;SDS011;32542;52.832;13.816;2024-02-23T07:28:23;0.40;;;0.40;;
17253;SDS011;32542;52.832;13.816;2024-02-23T07:31:25;0.40;;;0.40;;
17253;SDS011;32542;52.832;13.816;2024-02-23T07:34:30;0.43;;;0.43;;
17253;SDS011;32542;52.832;13.816;2024-02-23T07:37:33;0.32;;;0.32;;
17253;SDS011;32542;52.832;13.816;2024-02-23T07:40:36;0.50;;;0.40;;
17253;SDS011;32542;52.832;13.816;2024-02-23T07:43:41;0.80;;;0.52;;
17253;SDS011;32542;52.832;13.816;2024-02-23T07:46:43;0.40;;;0.40;;
17253;SDS011;32542;52.832;13.816;2024-02-23T07:49:48;2.53;;;0.40;;
17253;SDS011;32542;52.832;13.816;2024-02-23T07:52:51;0.90;;;0.50;;
17253;SDS011;32542;52.832;13.816;2024-02-23T07:55:54;0.52;;;0.50;;
17253;SDS011;32542;52.832;13.816;2024-02-23T07:58:57;0.50;;;0.50;;
17253;SDS011;32542;52.832;13.816;2024-02-23T08:02:00;0.88;;;0.50;;
17253;SDS011;32542;52.832;13.816;2024-02-23T08:05:05;1.38;;;0.57;;
17253;SDS011;32542;52.832;13.816;2024-02-23T08:08:09;1.27;;;0.50;;
17253;SDS011;32542;52.832;13.816;2024-02-23T08:11:12;1.08;;;0.60;;
17253;SDS011;32542;52.832;13.816;2024-02-23T08:14:16;0.70;;;0.50;;
17253;SDS011;32542;52.832;13.816;2024-02-23T08:17:19;1.08;;;0.60;;
17253;SDS011;32542;52.832;13.816;2024-02-23T08:20:23;0.60;;;0.47;;
17253;SDS011;32542;52.832;13.816;2024-02-23T08:23:26;3.58;;;0.60;;
17253;SDS011;32542;52.832;13.816;2024-02-23T08:26:29;0.60;;;0.60;;
17253;SDS011;32542;52.832;13.816;2024-02-23T08:29:32;3.83;;;1.05;;
17253;SDS011;32542;52.832;13.816;2024-02-23T08:32:35;1.05;;;0.50;;
17253;SDS011;32542;52.832;13.816;2024-02-23T08:35:40;2.92;;;0.60;;
17253;SDS011;32542;52.832;13.816;2024-02-23T08:38:43;0.40;;;0.40;;
17253;SDS011;32542;52.832;13.816;2024-02-23T08:41:45;1.27;;;0.50;;
17253;SDS011;32542;52.832;13.816;2024-02-23T08:44:48;0.93;;;0.40;;
17253;SDS011;32542;52.832;13.816;2024-02-23T08:47:51;5.07;;;0.80;;
17253;SDS011;32542;52.832;13.816;2024-02-23T08:50:56;5.43;;;0.90;;
17253;SDS011;32542;52.832;13.816;2024-02-23T08:53:58;3.65;;;0.82;;
17253;SDS011;32542;52.832;13.816;2024-02-23T08:57:05;3.85;;;0.70;;
17253;SDS011;32542;52.832;13.816;2024-02-23T09:00:09;8.07;;;1.10;;
17253;SDS011;32542;52.832;13.816;2024-02-23T09:03:17;8.38;;;1.00;;
17253;SDS011;32542;52.832;13.816;2024-02-23T09:06:21;4.22;;;0.90;;
17253;SDS011;32542;52.832;13.816;2024-02-23T09:09:24;4.50;;;0.90;;
17253;SDS011;32542;52.832;13.816;2024-02-23T09:12:27;5.45;;;1.25;;
17253;SDS011;32542;52.832;13.816;2024-02-23T09:15:30;2.05;;;0.70;;
17253;SDS011;32542;52.832;13.816;2024-02-23T09:18:33;2.67;;;1.05;;
17253;SDS011;32542;52.832;13.816;2024-02-23T09:21:38;2.85;;;0.60;;
17253;SDS011;32542;52.832;13.816;2024-02-23T09:24:41;13.95;;;1.50;;
17253;SDS011;32542;52.832;13.816;2024-02-23T09:27:44;12.45;;;1.55;;
17253;SDS011;32542;52.832;13.816;2024-02-23T09:30:47;11.52;;;1.38;;
17253;SDS011;32542;52.832;13.816;2024-02-23T09:33:50;14.80;;;1.38;;
17253;SDS011;32542;52.832;13.816;2024-02-23T09:36:55;9.82;;;1.10;;
17253;SDS011;32542;52.832;13.816;2024-02-23T09:39:58;3.88;;;1.00;;
17253;SDS011;32542;52.832;13.816;2024-02-23T09:43:02;3.20;;;0.63;;
17253;SDS011;32542;52.832;13.816;2024-02-23T09:46:10;6.53;;;0.90;;
17253;SDS011;32542;52.832;13.816;2024-02-23T09:49:13;1.88;;;0.73;;
17253;SDS011;32542;52.832;13.816;2024-02-23T09:52:19;15.15;;;0.90;;
17253;SDS011;32542;52.832;13.816;2024-02-23T09:55:23;5.13;;;0.85;;
17253;SDS011;32542;52.832;13.816;2024-02-23T09:58:26;6.65;;;0.63;;
17253;SDS011;32542;52.832;13.816;2024-02-23T10:01:31;1.13;;;0.55;;
17253;SDS011;32542;52.832;13.816;2024-02-23T10:04:35;5.03;;;0.85;;
17253;SDS011;32542;52.832;13.816;2024-02-23T10:07:41;3.22;;;0.60;;
17253;SDS011;32542;52.832;13.816;2024-02-23T10:10:46;2.50;;;0.50;;
17253;SDS011;32542;52.832;13.816;2024-02-23T10:13:51;3.00;;;0.50;;
17253;SDS011;32542;52.832;13.816;2024-02-23T10:16:54;2.75;;;0.68;;
17253;SDS011;32542;52.832;13.816;2024-02-23T10:19:58;1.67;;;0.57;;
17253;SDS011;32542;52.832;13.816;2024-02-23T10:23:07;0.85;;;0.50;;
17253;SDS011;32542;52.832;13.816;2024-02-23T10:26:09;1.85;;;0.55;;
17253;SDS011;32542;52.832;13.816;2024-02-23T10:29:12;2.40;;;0.50;;
17253;SDS011;32542;52.832;13.816;2024-02-23T10:32:19;1.38;;;0.50;;
17253;SDS011;32542;52.832;13.816;2024-02-23T10:35:23;3.22;;;0.68;;
17253;SDS011;32542;52.832;13.816;2024-02-23T10:38:29;2.08;;;0.70;;
17253;SDS011;32542;52.832;13.816;2024-02-23T10:41:35;2.35;;;0.90;;
17253;SDS011;32542;52.832;13.816;2024-02-23T10:44:39;1.35;;;0.60;;
17253;SDS011;32542;52.832;13.816;2024-02-23T10:47:43;6.18;;;0.70;;
17253;SDS011;32542;52.832;13.816;2024-02-23T10:50:46;2.05;;;0.60;;
17253;SDS011;32542;52.832;13.816;2024-02-23T10:53:53;1.95;;;0.60;;
17253;SDS011;32542;52.832;13.816;2024-02-23T10:56:56;2.90;;;0.68;;
17253;SDS011;32542;52.832;13.816;2024-02-23T10:59:59;2.65;;;0.63;;
17253;SDS011;32542;52.832;13.816;2024-02-23T11:03:02;2.22;;;0.50;;
17253;SDS011;32542;52.832;13.816;2024-02-23T11:06:07;1.15;;;0.60;;
17253;SDS011;32542;52.832;13.816;2024-02-23T11:09:13;1.70;;;0.50;;
17253;SDS011;32542;52.832;13.816;2024-02-23T11:12:21;4.72;;;0.77;;
17253;SDS011;32542;52.832;13.816;2024-02-23T11:15:26;3.05;;;0.77;;
17253;SDS011;32542;52.832;13.816;2024-02-23T11:18:30;8.02;;;0.80;;
17253;SDS011;32542;52.832;13.816;2024-02-23T11:21:35;5.97;;;0.60;;
17253;SDS011;32542;52.832;13.816;2024-02-23T11:24:43;5.00;;;0.90;;
17253;SDS011;32542;52.832;13.816;2024-02-23T11:27:49;1.27;;;0.50;;
17253;SDS011;32542;52.832;13.816;2024-02-23T11:30:52;7.32;;;0.93;;
17253;SDS011;32542;52.832;13.816;2024-02-23T11:33:56;6.95;;;0.90;;
17253;SDS011;32542;52.832;13.816;2024-02-23T11:37:06;3.72;;;0.93;;
17253;SDS011;32542;52.832;13.816;2024-02-23T11:40:13;5.32;;;0.80;;
17253;SDS011;32542;52.832;13.816;2024-02-23T11:43:16;5.13;;;0.82;;
17253;SDS011;32542;52.832;13.816;2024-02-23T11:46:20;5.95;;;1.23;;
17253;SDS011;32542;52.832;13.816;2024-02-23T11:49:26;9.02;;;1.55;;
17253;SDS011;32542;52.832;13.816;2024-02-23T11:52:30;3.30;;;0.90;;
17253;SDS011;32542;52.832;13.816;2024-02-23T11:55:35;8.75;;;1.20;;
17253;SDS011;32542;52.832;13.816;2024-02-23T11:58:39;6.90;;;0.93;;
17253;SDS011;32542;52.832;13.816;2024-02-23T12:01:42;11.93;;;0.80;;
17253;SDS011;32542;52.832;13.816;2024-02-23T12:04:45;9.15;;;1.30;;
17253;SDS011;32542;52.832;13.816;2024-02-23T12:07:49;10.55;;;1.20;;
17253;SDS011;32542;52.832;13.816;2024-02-23T12:10:53;7.10;;;1.20;;
17253;SDS011;32542;52.832;13.816;2024-02-23T12:13:56;8.55;;;1.73;;
17253;SDS011;32542;52.832;13.816;2024-02-23T12:17:01;10.18;;;1.45;;
17253;SDS011;32542;52.832;13.816;2024-02-23T12:20:05;5.82;;;1.23;;
17253;SDS011;32542;52.832;13.816;2024-02-23T12:23:11;7.10;;;1.15;;
17253;SDS011;32542;52.832;13.816;2024-02-23T12:26:16;5.70;;;1.45;;
17253;SDS011;32542;52.832;13.816;2024-02-23T12:29:20;7.97;;;1.15;;
17253;SDS011;32542;52.832;13.816;2024-02-23T12:32:23;11.95;;;2.53;;
17253;SDS011;32542;52.832;13.816;2024-02-23T12:35:26;4.68;;;1.65;;
17253;SDS011;32542;52.832;13.816;2024-02-23T12:38:30;8.45;;;1.20;;
17253;SDS011;32542;52.832;13.816;2024-02-23T12:41:34;10.07;;;1.73;;
17253;SDS011;32542;52.832;13.816;2024-02-23T12:44:38;7.63;;;1.40;;
17253;SDS011;32542;52.832;13.816;2024-02-23T12:47:41;6.93;;;1.73;;
17253;SDS011;32542;52.832;13.816;2024-02-23T12:50:44;7.13;;;1.42;;
17253;SDS011;32542;52.832;13.816;2024-02-23T12:53:47;6.70;;;1.30;;
17253;SDS011;32542;52.832;13.816;2024-02-23T12:56:51;7.60;;;1.23;;
17253;SDS011;32542;52.832;13.816;2024-02-23T12:59:54;7.20;;;1.10;;
17253;SDS011;32542;52.832;13.816;2024-02-23T13:02:57;5.53;;;1.15;;
17253;SDS011;32542;52.832;13.816;2024-02-23T13:06:00;5.57;;;1.05;;
17253;SDS011;32542;52.832;13.816;2024-02-23T13:09:04;8.23;;;1.27;;
17253;SDS011;32542;52.832;13.816;2024-02-23T13:12:10;5.30;;;1.13;;
17253;SDS011;32542;52.832;13.816;2024-02-23T13:15:13;7.60;;;1.02;;
17253;SDS011;32542;52.832;13.816;2024-02-23T13:18:20;7.15;;;1.20;;
17253;SDS011;32542;52.832;13.816;2024-02-23T13:21:23;3.22;;;1.02;;
17253;SDS011;32542;52.832;13.816;2024-02-23T13:24:26;4.88;;;0.90;;
17253;SDS011;32542;52.832;13.816;2024-02-23T13:27:31;3.95;;;1.00;;
17253;SDS011;32542;52.832;13.816;2024-02-23T13:30:34;6.63;;;1.20;;
17253;SDS011;32542;52.832;13.816;2024-02-23T13:33:38;3.22;;;0.93;;
17253;SDS011;32542;52.832;13.816;2024-02-23T13:36:42;9.73;;;1.10;;
17253;SDS011;32542;52.832;13.816;2024-02-23T13:39:45;8.18;;;1.45;;
17253;SDS011;32542;52.832;13.816;2024-02-23T13:42:49;5.78;;;1.42;;
17253;SDS011;32542;52.832;13.816;2024-02-23T13:45:54;5.20;;;0.93;;
17253;SDS011;32542;52.832;13.816;2024-02-23T13:49:02;3.33;;;1.10;;
17253;SDS011;32542;52.832;13.816;2024-02-23T13:52:07;5.32;;;1.02;;
17253;SDS011;32542;52.832;13.816;2024-02-23T13:55:10;3.10;;;1.00;;
17253;SDS011;32542;52.832;13.816;2024-02-23T13:58:14;5.40;;;1.10;;
17253;SDS011;32542;52.832;13.816;2024-02-23T14:01:17;4.55;;;1.60;;
17253;SDS011;32542;52.832;13.816;2024-02-23T14:04:20;6.43;;;1.17;;
17253;SDS011;32542;52.832;13.816;2024-02-23T14:07:23;2.38;;;0.70;;
17253;SDS011;32542;52.832;13.816;2024-02-23T14:10:26;6.65;;;1.13;;
17253;SDS011;32542;52.832;13.816;2024-02-23T14:13:30;4.45;;;1.30;;
17253;SDS011;32542;52.832;13.816;2024-02-23T14:16:33;3.05;;;0.82;;
17253;SDS011;32542;52.832;13.816;2024-02-23T14:19:36;3.22;;;0.70;;
17253;SDS011;32542;52.832;13.816;2024-02-23T14:22:40;3.25;;;0.70;;
17253;SDS011;32542;52.832;13.816;2024-02-23T14:25:43;3.85;;;0.95;;
17253;SDS011;32542;52.832;13.816;2024-02-23T14:28:47;11.57;;;1.85;;
17253;SDS011;32542;52.832;13.816;2024-02-23T14:31:51;5.50;;;1.10;;
17253;SDS011;32542;52.832;13.816;2024-02-23T14:34:54;5.97;;;1.77;;
17253;SDS011;32542;52.832;13.816;2024-02-23T14:37:59;4.10;;;0.95;;
17253;SDS011;32542;52.832;13.816;2024-02-23T14:41:02;7.53;;;1.10;;
17253;SDS011;32542;52.832;13.816;2024-02-23T14:44:07;5.45;;;1.25;;
17253;SDS011;32542;52.832;13.816;2024-02-23T14:47:10;2.75;;;0.95;;
17253;SDS011;32542;52.832;13.816;2024-02-23T14:50:14;2.15;;;0.90;;
17253;SDS011;32542;52.832;13.816;2024-02-23T14:53:17;8.32;;;1.08;;
17253;SDS011;32542;52.832;13.816;2024-02-23T14:56:20;2.80;;;0.90;;
17253;SDS011;32542;52.832;13.816;2024-02-23T14:59:24;5.70;;;0.90;;
17253;SDS011;32542;52.832;13.816;2024-02-23T15:02:27;6.97;;;1.30;;
17253;SDS011;32542;52.832;13.816;2024-02-23T15:05:30;4.55;;;1.55;;
17253;SDS011;32542;52.832;13.816;2024-02-23T15:08:34;8.25;;;1.13;;
17253;SDS011;32542;52.832;13.816;2024-02-23T15:11:37;4.90;;;1.05;;
17253;SDS011;32542;52.832;13.816;2024-02-23T15:14:41;10.10;;;1.20;;
17253;SDS011;32542;52.832;13.816;2024-02-23T15:17:44;5.38;;;1.02;;
17253;SDS011;32542;52.832;13.816;2024-02-23T15:20:48;3.42;;;0.80;;
17253;SDS011;32542;52.832;13.816;2024-02-23T15:23:53;4.75;;;1.10;;
17253;SDS011;32542;52.832;13.816;2024-02-23T15:26:57;2.60;;;0.98;;
17253;SDS011;32542;52.832;13.816;2024-02-23T15:30:02;3.55;;;0.90;;
17253;SDS011;32542;52.832;13.816;2024-02-23T15:33:05;6.32;;;1.33;;
17253;SDS011;32542;52.832;13.816;2024-02-23T15:36:09;4.22;;;1.02;;
17253;SDS011;32542;52.832;13.816;2024-02-23T15:39:11;2.88;;;0.80;;
17253;SDS011;32542;52.832;13.816;2024-02-23T15:42:15;2.15;;;0.90;;
17253;SDS011;32542;52.832;13.816;2024-02-23T15:45:23;7.93;;;0.80;;
17253;SDS011;32542;52.832;13.816;2024-02-23T15:48:25;2.97;;;0.90;;
17253;SDS011;32542;52.832;13.816;2024-02-23T15:51:29;4.00;;;0.80;;
17253;SDS011;32542;52.832;13.816;2024-02-23T15:54:52;4.18;;;0.80;;
17253;SDS011;32542;52.832;13.816;2024-02-23T15:57:55;1.58;;;0.70;;
17253;SDS011;32542;52.832;13.816;2024-02-23T16:00:59;2.95;;;0.65;;
17253;SDS011;32542;52.832;13.816;2024-02-23T16:04:03;5.50;;;0.82;;
17253;SDS011;32542;52.832;13.816;2024-02-23T16:07:06;2.15;;;0.90;;
17253;SDS011;32542;52.832;13.816;2024-02-23T16:10:09;2.60;;;1.08;;
17253;SDS011;32542;52.832;13.816;2024-02-23T16:13:14;3.33;;;0.70;;
17253;SDS011;32542;52.832;13.816;2024-02-23T16:16:18;3.38;;;0.80;;
17253;SDS011;32542;52.832;13.816;2024-02-23T16:19:21;3.63;;;0.90;;
17253;SDS011;32542;52.832;13.816;2024-02-23T16:22:24;2.30;;;0.98;;
17253;SDS011;32542;52.832;13.816;2024-02-23T16:25:27;1.98;;;0.73;;
17253;SDS011;32542;52.832;13.816;2024-02-23T16:28:30;3.28;;;0.90;;
17253;SDS011;32542;52.832;13.816;2024-02-23T16:31:35;4.63;;;0.80;;
17253;SDS011;32542;52.832;13.816;2024-02-23T16:34:38;2.35;;;0.73;;
17253;SDS011;32542;52.832;13.816;2024-02-23T16:37:41;2.28;;;1.23;;
17253;SDS011;32542;52.832;13.816;2024-02-23T16:40:44;3.35;;;0.70;;
17253;SDS011;32542;52.832;13.816;2024-02-23T16:43:47;2.10;;;0.57;;
17253;SDS011;32542;52.832;13.816;2024-02-23T16:46:51;2.67;;;0.70;;
17253;SDS011;32542;52.832;13.816;2024-02-23T16:49:54;1.25;;;0.73;;
17253;SDS011;32542;52.832;13.816;2024-02-23T16:52:57;3.67;;;0.82;;
17253;SDS011;32542;52.832;13.816;2024-02-23T16:56:00;0.68;;;0.50;;
17253;SDS011;32542;52.832;13.816;2024-02-23T16:59:04;3.20;;;0.80;;
17253;SDS011;32542;52.832;13.816;2024-02-23T17:02:09;3.15;;;0.90;;
17253;SDS011;32542;52.832;13.816;2024-02-23T17:05:12;3.42;;;0.80;;
17253;SDS011;32542;52.832;13.816;2024-02-23T17:08:15;2.17;;;0.70;;
17253;SDS011;32542;52.832;13.816;2024-02-23T17:11:18;3.42;;;0.80;;
17253;SDS011;32542;52.832;13.816;2024-02-23T17:14:21;2.15;;;0.80;;
17253;SDS011;32542;52.832;13.816;2024-02-23T17:17:27;1.63;;;0.80;;
17253;SDS011;32542;52.832;13.816;2024-02-23T17:20:31;1.10;;;0.68;;
17253;SDS011;32542;52.832;13.816;2024-02-23T17:23:34;1.80;;;0.70;;
17253;SDS011;32542;52.832;13.816;2024-02-23T17:26:37;0.95;;;0.82;;
17253;SDS011;32542;52.832;13.816;2024-02-23T17:29:40;2.80;;;0.73;;
17253;SDS011;32542;52.832;13.816;2024-02-23T17:32:44;2.95;;;0.63;;
17253;SDS011;32542;52.832;13.816;2024-02-23T17:35:47;2.15;;;0.85;;
17253;SDS011;32542;52.832;13.816;2024-02-23T17:38:50;2.33;;;0.80;;
17253;SDS011;32542;52.832;13.816;2024-02-23T17:41:53;1.95;;;0.85;;
17253;SDS011;32542;52.832;13.816;2024-02-23T17:44:57;1.33;;;0.70;;
17253;SDS011;32542;52.832;13.816;2024-02-23T17:48:01;2.65;;;0.80;;
17253;SDS011;32542;52.832;13.816;2024-02-23T17:51:04;1.55;;;0.70;;
17253;SDS011;32542;52.832;13.816;2024-02-23T17:54:07;2.25;;;0.88;;
17253;SDS011;32542;52.832;13.816;2024-02-23T17:57:10;1.55;;;0.52;;
17253;SDS011;32542;52.832;13.816;2024-02-23T18:00:13;1.17;;;0.70;;
17253;SDS011;32542;52.832;13.816;2024-02-23T18:03:18;0.90;;;0.63;;
17253;SDS011;32542;52.832;13.816;2024-02-23T18:06:21;2.47;;;0.70;;
17253;SDS011;32542;52.832;13.816;2024-02-23T18:09:25;2.72;;;0.50;;